Terminal Aerodrome Forecast
Issued by NWS

Home | Current Version | Previous Version | Text Only | Print | Product List | Glossary On
Versions: 1 2 3 4 5 6 7 8 9 10 11 12 13 14 15 16 17 18 19 20 21 22
000
FTUS43 KGRR 200500
TAFAZO
TAF
KAZO 200540Z 2006/2106 18004KT 6SM BR OVC050
     FM201000 26004KT 2SM BR OVC007
     FM201100 27005KT 1SM BR BKN004
     FM201500 29008KT P6SM VCSH BKN050
     FM202300 30007KT P6SM SCT250=

USA.gov is the U.S. government's official web portal to all federal, state and local government web resources and services.